sensor_id;sensor_type;location;lat;lon;timestamp;P1;durP1;ratioP1;P2;durP2;ratioP2
30862;SDS011;17573;55.922;37.540;2024-01-06T00:01:53;40.33;;;19.50;;
30862;SDS011;17573;55.922;37.540;2024-01-06T00:04:18;45.78;;;19.60;;
30862;SDS011;17573;55.922;37.540;2024-01-06T00:06:44;43.28;;;17.30;;
30862;SDS011;17573;55.922;37.540;2024-01-06T00:09:10;37.10;;;19.13;;
30862;SDS011;17573;55.922;37.540;2024-01-06T00:11:36;41.03;;;18.35;;
30862;SDS011;17573;55.922;37.540;2024-01-06T00:14:02;42.60;;;19.00;;
30862;SDS011;17573;55.922;37.540;2024-01-06T00:16:27;32.22;;;15.80;;
30862;SDS011;17573;55.922;37.540;2024-01-06T00:18:53;43.28;;;18.88;;
30862;SDS011;17573;55.922;37.540;2024-01-06T00:21:19;49.15;;;19.85;;
30862;SDS011;17573;55.922;37.540;2024-01-06T00:23:44;37.28;;;19.40;;
30862;SDS011;17573;55.922;37.540;2024-01-06T00:26:10;39.50;;;18.55;;
30862;SDS011;17573;55.922;37.540;2024-01-06T00:28:37;39.80;;;17.35;;
30862;SDS011;17573;55.922;37.540;2024-01-06T00:31:04;46.58;;;19.02;;
30862;SDS011;17573;55.922;37.540;2024-01-06T00:33:31;44.70;;;18.00;;
30862;SDS011;17573;55.922;37.540;2024-01-06T00:35:56;39.70;;;19.05;;
30862;SDS011;17573;55.922;37.540;2024-01-06T00:38:22;32.30;;;15.93;;
30862;SDS011;17573;55.922;37.540;2024-01-06T00:40:47;28.73;;;14.00;;
30862;SDS011;17573;55.922;37.540;2024-01-06T00:43:13;44.75;;;18.45;;
30862;SDS011;17573;55.922;37.540;2024-01-06T00:45:39;42.17;;;19.33;;
30862;SDS011;17573;55.922;37.540;2024-01-06T00:48:05;39.72;;;18.30;;
30862;SDS011;17573;55.922;37.540;2024-01-06T00:50:31;36.38;;;19.05;;
30862;SDS011;17573;55.922;37.540;2024-01-06T00:52:57;47.85;;;17.83;;
30862;SDS011;17573;55.922;37.540;2024-01-06T00:55:23;37.22;;;17.95;;
30862;SDS011;17573;55.922;37.540;2024-01-06T00:57:50;37.42;;;18.05;;
30862;SDS011;17573;55.922;37.540;2024-01-06T01:00:16;39.00;;;18.85;;
30862;SDS011;17573;55.922;37.540;2024-01-06T01:02:41;36.45;;;19.02;;
30862;SDS011;17573;55.922;37.540;2024-01-06T01:05:07;35.38;;;16.83;;
30862;SDS011;17573;55.922;37.540;2024-01-06T01:07:33;31.35;;;14.70;;
30862;SDS011;17573;55.922;37.540;2024-01-06T01:09:59;44.50;;;18.58;;
30862;SDS011;17573;55.922;37.540;2024-01-06T01:12:25;29.45;;;14.00;;
30862;SDS011;17573;55.922;37.540;2024-01-06T01:14:52;50.78;;;14.57;;
30862;SDS011;17573;55.922;37.540;2024-01-06T01:17:18;39.53;;;18.35;;
30862;SDS011;17573;55.922;37.540;2024-01-06T01:19:45;38.00;;;16.23;;
30862;SDS011;17573;55.922;37.540;2024-01-06T01:22:11;30.25;;;13.02;;
30862;SDS011;17573;55.922;37.540;2024-01-06T01:24:37;38.50;;;17.05;;
30862;SDS011;17573;55.922;37.540;2024-01-06T01:27:03;31.80;;;16.02;;
30862;SDS011;17573;55.922;37.540;2024-01-06T01:29:28;33.40;;;15.70;;
30862;SDS011;17573;55.922;37.540;2024-01-06T01:31:54;45.03;;;17.85;;
30862;SDS011;17573;55.922;37.540;2024-01-06T01:34:20;42.88;;;16.50;;
30862;SDS011;17573;55.922;37.540;2024-01-06T01:36:46;40.30;;;18.20;;
30862;SDS011;17573;55.922;37.540;2024-01-06T01:39:12;43.95;;;18.83;;
30862;SDS011;17573;55.922;37.540;2024-01-06T01:41:39;34.38;;;17.00;;
30862;SDS011;17573;55.922;37.540;2024-01-06T01:44:05;30.55;;;16.13;;
30862;SDS011;17573;55.922;37.540;2024-01-06T01:46:31;37.92;;;16.40;;
30862;SDS011;17573;55.922;37.540;2024-01-06T01:48:58;48.35;;;19.20;;
30862;SDS011;17573;55.922;37.540;2024-01-06T01:51:27;46.35;;;19.10;;
30862;SDS011;17573;55.922;37.540;2024-01-06T01:53:55;37.55;;;17.88;;
30862;SDS011;17573;55.922;37.540;2024-01-06T01:56:23;38.15;;;16.38;;
30862;SDS011;17573;55.922;37.540;2024-01-06T01:58:49;36.85;;;16.50;;
30862;SDS011;17573;55.922;37.540;2024-01-06T02:01:15;35.60;;;16.30;;
30862;SDS011;17573;55.922;37.540;2024-01-06T02:03:41;44.13;;;18.35;;
30862;SDS011;17573;55.922;37.540;2024-01-06T02:06:10;33.72;;;14.57;;
30862;SDS011;17573;55.922;37.540;2024-01-06T02:08:37;33.50;;;12.88;;
30862;SDS011;17573;55.922;37.540;2024-01-06T02:11:03;39.55;;;15.52;;
30862;SDS011;17573;55.922;37.540;2024-01-06T02:13:36;38.45;;;16.05;;
30862;SDS011;17573;55.922;37.540;2024-01-06T02:16:03;40.50;;;17.52;;
30862;SDS011;17573;55.922;37.540;2024-01-06T02:18:30;43.38;;;17.95;;
30862;SDS011;17573;55.922;37.540;2024-01-06T02:20:57;48.85;;;17.23;;
30862;SDS011;17573;55.922;37.540;2024-01-06T02:23:24;40.30;;;17.85;;
30862;SDS011;17573;55.922;37.540;2024-01-06T02:25:50;35.83;;;15.80;;
30862;SDS011;17573;55.922;37.540;2024-01-06T02:28:15;30.48;;;15.02;;
30862;SDS011;17573;55.922;37.540;2024-01-06T02:30:41;30.27;;;15.50;;
30862;SDS011;17573;55.922;37.540;2024-01-06T02:33:07;31.60;;;15.60;;
30862;SDS011;17573;55.922;37.540;2024-01-06T02:35:33;30.70;;;16.38;;
30862;SDS011;17573;55.922;37.540;2024-01-06T02:37:58;51.38;;;18.55;;
30862;SDS011;17573;55.922;37.540;2024-01-06T02:40:24;38.13;;;17.20;;
30862;SDS011;17573;55.922;37.540;2024-01-06T02:42:50;30.40;;;14.95;;
30862;SDS011;17573;55.922;37.540;2024-01-06T02:45:16;43.05;;;17.90;;
30862;SDS011;17573;55.922;37.540;2024-01-06T02:47:42;44.35;;;16.05;;
30862;SDS011;17573;55.922;37.540;2024-01-06T02:50:08;34.80;;;14.82;;
30862;SDS011;17573;55.922;37.540;2024-01-06T02:52:33;32.78;;;15.50;;
30862;SDS011;17573;55.922;37.540;2024-01-06T02:54:59;39.30;;;16.55;;
30862;SDS011;17573;55.922;37.540;2024-01-06T02:57:29;29.83;;;14.20;;
30862;SDS011;17573;55.922;37.540;2024-01-06T02:59:56;34.13;;;13.45;;
30862;SDS011;17573;55.922;37.540;2024-01-06T03:02:22;40.10;;;16.13;;
30862;SDS011;17573;55.922;37.540;2024-01-06T03:04:48;43.42;;;16.48;;
30862;SDS011;17573;55.922;37.540;2024-01-06T03:07:14;29.50;;;12.07;;
30862;SDS011;17573;55.922;37.540;2024-01-06T03:09:40;41.95;;;15.38;;
30862;SDS011;17573;55.922;37.540;2024-01-06T03:12:06;39.78;;;15.80;;
30862;SDS011;17573;55.922;37.540;2024-01-06T03:14:34;41.47;;;15.98;;
30862;SDS011;17573;55.922;37.540;2024-01-06T03:17:00;33.10;;;15.80;;
30862;SDS011;17573;55.922;37.540;2024-01-06T03:19:26;41.50;;;14.55;;
30862;SDS011;17573;55.922;37.540;2024-01-06T03:21:52;33.92;;;15.85;;
30862;SDS011;17573;55.922;37.540;2024-01-06T03:24:19;37.33;;;17.60;;
30862;SDS011;17573;55.922;37.540;2024-01-06T03:26:46;32.33;;;15.32;;
30862;SDS011;17573;55.922;37.540;2024-01-06T03:29:12;35.88;;;14.27;;
30862;SDS011;17573;55.922;37.540;2024-01-06T03:31:41;43.75;;;17.15;;
30862;SDS011;17573;55.922;37.540;2024-01-06T03:34:08;34.65;;;14.23;;
30862;SDS011;17573;55.922;37.540;2024-01-06T03:36:35;38.30;;;15.10;;
30862;SDS011;17573;55.922;37.540;2024-01-06T03:39:01;34.22;;;15.52;;
30862;SDS011;17573;55.922;37.540;2024-01-06T03:41:27;36.30;;;15.27;;
30862;SDS011;17573;55.922;37.540;2024-01-06T03:43:53;37.50;;;17.08;;
30862;SDS011;17573;55.922;37.540;2024-01-06T03:46:19;37.42;;;15.55;;
30862;SDS011;17573;55.922;37.540;2024-01-06T03:48:44;38.17;;;16.60;;
30862;SDS011;17573;55.922;37.540;2024-01-06T03:51:12;37.20;;;16.73;;
30862;SDS011;17573;55.922;37.540;2024-01-06T03:53:37;24.95;;;14.25;;
30862;SDS011;17573;55.922;37.540;2024-01-06T03:56:03;34.45;;;14.75;;
30862;SDS011;17573;55.922;37.540;2024-01-06T03:58:29;28.20;;;15.23;;
30862;SDS011;17573;55.922;37.540;2024-01-06T04:00:55;32.47;;;14.88;;
30862;SDS011;17573;55.922;37.540;2024-01-06T04:03:21;43.45;;;14.50;;
30862;SDS011;17573;55.922;37.540;2024-01-06T04:05:47;39.97;;;15.05;;
30862;SDS011;17573;55.922;37.540;2024-01-06T04:08:13;40.55;;;14.63;;
30862;SDS011;17573;55.922;37.540;2024-01-06T04:10:39;34.15;;;15.02;;
30862;SDS011;17573;55.922;37.540;2024-01-06T04:13:06;26.65;;;14.57;;
30862;SDS011;17573;55.922;37.540;2024-01-06T04:15:33;34.10;;;14.27;;
30862;SDS011;17573;55.922;37.540;2024-01-06T04:18:01;36.65;;;15.77;;
30862;SDS011;17573;55.922;37.540;2024-01-06T04:20:28;34.38;;;13.50;;
30862;SDS011;17573;55.922;37.540;2024-01-06T04:22:54;27.08;;;12.98;;
30862;SDS011;17573;55.922;37.540;2024-01-06T04:25:20;41.20;;;16.15;;
30862;SDS011;17573;55.922;37.540;2024-01-06T04:27:47;36.50;;;16.02;;
30862;SDS011;17573;55.922;37.540;2024-01-06T04:30:14;33.58;;;15.45;;
30862;SDS011;17573;55.922;37.540;2024-01-06T04:32:40;37.67;;;15.68;;
30862;SDS011;17573;55.922;37.540;2024-01-06T04:35:07;48.35;;;14.50;;
30862;SDS011;17573;55.922;37.540;2024-01-06T04:37:32;28.77;;;13.82;;
30862;SDS011;17573;55.922;37.540;2024-01-06T04:39:59;35.97;;;15.20;;
30862;SDS011;17573;55.922;37.540;2024-01-06T04:42:25;34.95;;;14.63;;
30862;SDS011;17573;55.922;37.540;2024-01-06T04:44:51;45.63;;;15.25;;
30862;SDS011;17573;55.922;37.540;2024-01-06T04:47:16;32.65;;;15.25;;
30862;SDS011;17573;55.922;37.540;2024-01-06T04:49:43;30.30;;;15.07;;
30862;SDS011;17573;55.922;37.540;2024-01-06T04:52:10;37.30;;;16.02;;
30862;SDS011;17573;55.922;37.540;2024-01-06T04:54:35;43.15;;;15.77;;
30862;SDS011;17573;55.922;37.540;2024-01-06T04:57:01;43.63;;;17.15;;
30862;SDS011;17573;55.922;37.540;2024-01-06T04:59:27;35.45;;;15.98;;
30862;SDS011;17573;55.922;37.540;2024-01-06T05:01:53;31.88;;;14.93;;
30862;SDS011;17573;55.922;37.540;2024-01-06T05:04:19;40.13;;;15.60;;
30862;SDS011;17573;55.922;37.540;2024-01-06T05:06:45;37.55;;;15.18;;
30862;SDS011;17573;55.922;37.540;2024-01-06T05:09:11;45.05;;;15.98;;
30862;SDS011;17573;55.922;37.540;2024-01-06T05:11:37;32.88;;;15.15;;
30862;SDS011;17573;55.922;37.540;2024-01-06T05:14:03;40.90;;;17.10;;
30862;SDS011;17573;55.922;37.540;2024-01-06T05:16:28;37.05;;;14.43;;
30862;SDS011;17573;55.922;37.540;2024-01-06T05:18:54;38.20;;;15.75;;
30862;SDS011;17573;55.922;37.540;2024-01-06T05:21:20;46.50;;;17.10;;
30862;SDS011;17573;55.922;37.540;2024-01-06T05:23:46;37.63;;;17.15;;
30862;SDS011;17573;55.922;37.540;2024-01-06T05:26:12;35.95;;;14.45;;
30862;SDS011;17573;55.922;37.540;2024-01-06T05:28:39;36.90;;;17.92;;
30862;SDS011;17573;55.922;37.540;2024-01-06T05:31:05;35.53;;;17.55;;
30862;SDS011;17573;55.922;37.540;2024-01-06T05:33:31;36.75;;;14.93;;
30862;SDS011;17573;55.922;37.540;2024-01-06T05:35:57;41.92;;;16.20;;
30862;SDS011;17573;55.922;37.540;2024-01-06T05:38:23;36.65;;;17.27;;
30862;SDS011;17573;55.922;37.540;2024-01-06T05:40:49;35.45;;;15.75;;
30862;SDS011;17573;55.922;37.540;2024-01-06T05:43:15;36.15;;;15.95;;
30862;SDS011;17573;55.922;37.540;2024-01-06T05:45:40;37.47;;;16.50;;
30862;SDS011;17573;55.922;37.540;2024-01-06T05:48:10;50.08;;;17.05;;
30862;SDS011;17573;55.922;37.540;2024-01-06T05:50:37;42.90;;;16.42;;
30862;SDS011;17573;55.922;37.540;2024-01-06T05:53:04;31.90;;;14.68;;
30862;SDS011;17573;55.922;37.540;2024-01-06T05:55:31;37.42;;;16.83;;
30862;SDS011;17573;55.922;37.540;2024-01-06T05:57:57;41.75;;;17.00;;
30862;SDS011;17573;55.922;37.540;2024-01-06T06:00:22;38.63;;;16.50;;
30862;SDS011;17573;55.922;37.540;2024-01-06T06:02:48;32.67;;;15.13;;
30862;SDS011;17573;55.922;37.540;2024-01-06T06:05:14;38.17;;;15.43;;
30862;SDS011;17573;55.922;37.540;2024-01-06T06:07:39;30.92;;;17.05;;
30862;SDS011;17573;55.922;37.540;2024-01-06T06:10:07;35.33;;;15.30;;
30862;SDS011;17573;55.922;37.540;2024-01-06T06:12:33;50.70;;;18.92;;
30862;SDS011;17573;55.922;37.540;2024-01-06T06:14:59;39.60;;;16.85;;
30862;SDS011;17573;55.922;37.540;2024-01-06T06:17:25;40.72;;;17.75;;
30862;SDS011;17573;55.922;37.540;2024-01-06T06:19:51;43.85;;;18.10;;
30862;SDS011;17573;55.922;37.540;2024-01-06T06:22:17;38.72;;;15.65;;
30862;SDS011;17573;55.922;37.540;2024-01-06T06:24:43;37.17;;;16.33;;
30862;SDS011;17573;55.922;37.540;2024-01-06T06:27:09;36.05;;;17.20;;
30862;SDS011;17573;55.922;37.540;2024-01-06T06:29:34;46.28;;;18.63;;
30862;SDS011;17573;55.922;37.540;2024-01-06T06:32:00;33.05;;;17.10;;
30862;SDS011;17573;55.922;37.540;2024-01-06T06:34:26;33.13;;;14.90;;
30862;SDS011;17573;55.922;37.540;2024-01-06T06:36:52;34.58;;;16.85;;
30862;SDS011;17573;55.922;37.540;2024-01-06T06:39:18;32.10;;;15.25;;
30862;SDS011;17573;55.922;37.540;2024-01-06T06:41:43;32.22;;;16.40;;
30862;SDS011;17573;55.922;37.540;2024-01-06T06:44:10;48.50;;;17.63;;
30862;SDS011;17573;55.922;37.540;2024-01-06T06:46:36;42.90;;;15.57;;
30862;SDS011;17573;55.922;37.540;2024-01-06T06:49:02;41.65;;;16.42;;
30862;SDS011;17573;55.922;37.540;2024-01-06T06:51:28;45.00;;;18.00;;
30862;SDS011;17573;55.922;37.540;2024-01-06T06:53:55;46.00;;;20.42;;
30862;SDS011;17573;55.922;37.540;2024-01-06T06:56:22;46.33;;;16.70;;
30862;SDS011;17573;55.922;37.540;2024-01-06T06:58:48;43.28;;;17.90;;
30862;SDS011;17573;55.922;37.540;2024-01-06T07:01:16;33.38;;;15.90;;
30862;SDS011;17573;55.922;37.540;2024-01-06T07:03:42;52.08;;;19.00;;
30862;SDS011;17573;55.922;37.540;2024-01-06T07:06:08;41.47;;;16.33;;
30862;SDS011;17573;55.922;37.540;2024-01-06T07:08:37;55.40;;;17.58;;
30862;SDS011;17573;55.922;37.540;2024-01-06T07:11:03;40.42;;;18.75;;
30862;SDS011;17573;55.922;37.540;2024-01-06T07:13:30;46.65;;;18.27;;
30862;SDS011;17573;55.922;37.540;2024-01-06T07:15:55;55.22;;;19.17;;
30862;SDS011;17573;55.922;37.540;2024-01-06T07:18:21;63.35;;;20.02;;
30862;SDS011;17573;55.922;37.540;2024-01-06T07:20:49;31.88;;;15.43;;
30862;SDS011;17573;55.922;37.540;2024-01-06T07:23:15;34.40;;;15.98;;
30862;SDS011;17573;55.922;37.540;2024-01-06T07:25:41;51.05;;;16.73;;
30862;SDS011;17573;55.922;37.540;2024-01-06T07:28:08;45.92;;;17.70;;
30862;SDS011;17573;55.922;37.540;2024-01-06T07:30:34;33.40;;;17.00;;
30862;SDS011;17573;55.922;37.540;2024-01-06T07:33:00;51.78;;;17.20;;
30862;SDS011;17573;55.922;37.540;2024-01-06T07:35:25;50.45;;;17.30;;
30862;SDS011;17573;55.922;37.540;2024-01-06T07:37:51;56.67;;;19.48;;
30862;SDS011;17573;55.922;37.540;2024-01-06T07:40:18;44.20;;;18.25;;
30862;SDS011;17573;55.922;37.540;2024-01-06T07:42:44;40.17;;;20.20;;
30862;SDS011;17573;55.922;37.540;2024-01-06T07:45:10;46.03;;;17.77;;
30862;SDS011;17573;55.922;37.540;2024-01-06T07:47:36;34.78;;;17.40;;
30862;SDS011;17573;55.922;37.540;2024-01-06T07:50:03;52.25;;;19.75;;
30862;SDS011;17573;55.922;37.540;2024-01-06T07:52:30;47.83;;;19.20;;
30862;SDS011;17573;55.922;37.540;2024-01-06T07:54:56;58.30;;;20.85;;
30862;SDS011;17573;55.922;37.540;2024-01-06T07:57:22;41.83;;;17.70;;
30862;SDS011;17573;55.922;37.540;2024-01-06T07:59:48;37.65;;;17.25;;
30862;SDS011;17573;55.922;37.540;2024-01-06T08:02:14;37.13;;;19.45;;
30862;SDS011;17573;55.922;37.540;2024-01-06T08:04:39;44.60;;;18.38;;
30862;SDS011;17573;55.922;37.540;2024-01-06T08:07:05;51.55;;;20.58;;
30862;SDS011;17573;55.922;37.540;2024-01-06T08:09:31;38.97;;;19.00;;
30862;SDS011;17573;55.922;37.540;2024-01-06T08:11:57;43.92;;;19.85;;
30862;SDS011;17573;55.922;37.540;2024-01-06T08:14:23;38.42;;;18.23;;
30862;SDS011;17573;55.922;37.540;2024-01-06T08:16:49;49.67;;;19.83;;
30862;SDS011;17573;55.922;37.540;2024-01-06T08:19:15;38.00;;;17.58;;
30862;SDS011;17573;55.922;37.540;2024-01-06T08:21:41;50.08;;;22.23;;
30862;SDS011;17573;55.922;37.540;2024-01-06T08:24:07;43.63;;;20.98;;
30862;SDS011;17573;55.922;37.540;2024-01-06T08:26:32;49.13;;;20.25;;
30862;SDS011;17573;55.922;37.540;2024-01-06T08:28:59;53.80;;;22.48;;
30862;SDS011;17573;55.922;37.540;2024-01-06T08:31:24;51.40;;;21.17;;
30862;SDS011;17573;55.922;37.540;2024-01-06T08:33:50;50.80;;;22.13;;
30862;SDS011;17573;55.922;37.540;2024-01-06T08:36:16;47.78;;;20.65;;
30862;SDS011;17573;55.922;37.540;2024-01-06T08:38:42;49.22;;;22.88;;
30862;SDS011;17573;55.922;37.540;2024-01-06T08:41:08;68.00;;;23.35;;
30862;SDS011;17573;55.922;37.540;2024-01-06T08:43:34;43.38;;;18.48;;
30862;SDS011;17573;55.922;37.540;2024-01-06T08:46:00;47.03;;;23.50;;
30862;SDS011;17573;55.922;37.540;2024-01-06T08:48:26;63.13;;;22.92;;
30862;SDS011;17573;55.922;37.540;2024-01-06T08:50:52;45.72;;;21.67;;
30862;SDS011;17573;55.922;37.540;2024-01-06T08:53:17;51.20;;;20.10;;
30862;SDS011;17573;55.922;37.540;2024-01-06T08:55:43;58.63;;;23.23;;
30862;SDS011;17573;55.922;37.540;2024-01-06T08:58:09;53.92;;;22.33;;
30862;SDS011;17573;55.922;37.540;2024-01-06T09:00:35;64.50;;;25.85;;
30862;SDS011;17573;55.922;37.540;2024-01-06T09:03:01;46.03;;;20.60;;
30862;SDS011;17573;55.922;37.540;2024-01-06T09:05:26;60.45;;;24.05;;
30862;SDS011;17573;55.922;37.540;2024-01-06T09:07:52;67.18;;;26.60;;
30862;SDS011;17573;55.922;37.540;2024-01-06T09:10:18;47.40;;;22.13;;
30862;SDS011;17573;55.922;37.540;2024-01-06T09:12:44;54.75;;;22.50;;
30862;SDS011;17573;55.922;37.540;2024-01-06T09:15:11;62.95;;;21.50;;
30862;SDS011;17573;55.922;37.540;2024-01-06T09:17:36;51.38;;;21.05;;
30862;SDS011;17573;55.922;37.540;2024-01-06T09:20:02;55.42;;;22.17;;
30862;SDS011;17573;55.922;37.540;2024-01-06T09:22:29;48.38;;;22.13;;
30862;SDS011;17573;55.922;37.540;2024-01-06T09:24:55;63.97;;;24.70;;
30862;SDS011;17573;55.922;37.540;2024-01-06T09:27:21;51.35;;;24.00;;
30862;SDS011;17573;55.922;37.540;2024-01-06T09:29:47;50.85;;;21.85;;
30862;SDS011;17573;55.922;37.540;2024-01-06T09:32:13;46.90;;;23.48;;
30862;SDS011;17573;55.922;37.540;2024-01-06T09:34:38;53.50;;;21.77;;
30862;SDS011;17573;55.922;37.540;2024-01-06T09:37:04;52.63;;;22.63;;
30862;SDS011;17573;55.922;37.540;2024-01-06T09:39:30;45.65;;;21.38;;
30862;SDS011;17573;55.922;37.540;2024-01-06T09:41:57;61.28;;;22.73;;
30862;SDS011;17573;55.922;37.540;2024-01-06T09:44:23;58.13;;;21.95;;
30862;SDS011;17573;55.922;37.540;2024-01-06T09:46:49;65.78;;;25.40;;
30862;SDS011;17573;55.922;37.540;2024-01-06T09:49:17;52.75;;;22.05;;
30862;SDS011;17573;55.922;37.540;2024-01-06T09:51:49;45.05;;;19.15;;
30862;SDS011;17573;55.922;37.540;2024-01-06T09:54:16;48.70;;;23.17;;
30862;SDS011;17573;55.922;37.540;2024-01-06T09:56:47;52.80;;;22.75;;
30862;SDS011;17573;55.922;37.540;2024-01-06T09:59:14;53.35;;;22.45;;
30862;SDS011;17573;55.922;37.540;2024-01-06T10:01:40;54.33;;;21.63;;
30862;SDS011;17573;55.922;37.540;2024-01-06T10:04:06;59.50;;;22.42;;
30862;SDS011;17573;55.922;37.540;2024-01-06T10:06:32;55.42;;;21.15;;
30862;SDS011;17573;55.922;37.540;2024-01-06T10:08:58;58.00;;;20.65;;
30862;SDS011;17573;55.922;37.540;2024-01-06T10:11:23;46.55;;;22.58;;
30862;SDS011;17573;55.922;37.540;2024-01-06T10:13:50;42.40;;;20.55;;
30862;SDS011;17573;55.922;37.540;2024-01-06T10:16:16;61.75;;;23.52;;
30862;SDS011;17573;55.922;37.540;2024-01-06T10:18:43;49.95;;;22.23;;
30862;SDS011;17573;55.922;37.540;2024-01-06T10:21:10;59.45;;;23.30;;
30862;SDS011;17573;55.922;37.540;2024-01-06T10:23:36;51.95;;;21.48;;
30862;SDS011;17573;55.922;37.540;2024-01-06T10:26:02;67.50;;;22.83;;
30862;SDS011;17573;55.922;37.540;2024-01-06T10:28:28;68.43;;;25.33;;
30862;SDS011;17573;55.922;37.540;2024-01-06T10:30:55;54.65;;;23.27;;
30862;SDS011;17573;55.922;37.540;2024-01-06T10:33:22;54.95;;;23.83;;
30862;SDS011;17573;55.922;37.540;2024-01-06T10:35:49;68.10;;;23.25;;
30862;SDS011;17573;55.922;37.540;2024-01-06T10:38:15;35.33;;;16.50;;
30862;SDS011;17573;55.922;37.540;2024-01-06T10:41:02;58.42;;;24.25;;
30862;SDS011;17573;55.922;37.540;2024-01-06T10:43:35;60.78;;;23.88;;
30862;SDS011;17573;55.922;37.540;2024-01-06T10:46:07;78.00;;;28.45;;
30862;SDS011;17573;55.922;37.540;2024-01-06T10:48:37;55.70;;;24.50;;
30862;SDS011;17573;55.922;37.540;2024-01-06T10:51:11;62.95;;;24.08;;
30862;SDS011;17573;55.922;37.540;2024-01-06T10:53:42;67.35;;;24.10;;
30862;SDS011;17573;55.922;37.540;2024-01-06T10:56:08;55.58;;;23.63;;
30862;SDS011;17573;55.922;37.540;2024-01-06T10:58:36;60.58;;;24.02;;
30862;SDS011;17573;55.922;37.540;2024-01-06T11:01:08;52.60;;;23.55;;
30862;SDS011;17573;55.922;37.540;2024-01-06T11:03:36;55.45;;;23.63;;
30862;SDS011;17573;55.922;37.540;2024-01-06T11:06:04;56.28;;;23.65;;
30862;SDS011;17573;55.922;37.540;2024-01-06T11:08:32;54.17;;;24.13;;
30862;SDS011;17573;55.922;37.540;2024-01-06T11:10:59;63.00;;;24.70;;
30862;SDS011;17573;55.922;37.540;2024-01-06T11:13:25;58.25;;;25.55;;
30862;SDS011;17573;55.922;37.540;2024-01-06T11:15:52;64.28;;;24.58;;
30862;SDS011;17573;55.922;37.540;2024-01-06T11:18:37;53.15;;;22.77;;
30862;SDS011;17573;55.922;37.540;2024-01-06T11:21:16;62.63;;;23.55;;
30862;SDS011;17573;55.922;37.540;2024-01-06T11:26:52;57.08;;;25.27;;
30862;SDS011;17573;55.922;37.540;2024-01-06T11:29:21;62.22;;;25.13;;
30862;SDS011;17573;55.922;37.540;2024-01-06T11:34:42;69.80;;;25.92;;
30862;SDS011;17573;55.922;37.540;2024-01-06T11:37:07;53.35;;;25.08;;
30862;SDS011;17573;55.922;37.540;2024-01-06T11:39:35;54.95;;;24.00;;
30862;SDS011;17573;55.922;37.540;2024-01-06T11:42:05;55.60;;;25.10;;
30862;SDS011;17573;55.922;37.540;2024-01-06T11:44:34;55.35;;;25.20;;
30862;SDS011;17573;55.922;37.540;2024-01-06T11:47:02;65.30;;;29.77;;
30862;SDS011;17573;55.922;37.540;2024-01-06T11:49:29;59.88;;;30.48;;
30862;SDS011;17573;55.922;37.540;2024-01-06T11:51:56;59.20;;;27.48;;
30862;SDS011;17573;55.922;37.540;2024-01-06T11:54:23;56.53;;;23.00;;
30862;SDS011;17573;55.922;37.540;2024-01-06T11:56:49;69.80;;;26.67;;
30862;SDS011;17573;55.922;37.540;2024-01-06T11:59:15;45.03;;;23.30;;
30862;SDS011;17573;55.922;37.540;2024-01-06T12:01:41;57.42;;;27.30;;
30862;SDS011;17573;55.922;37.540;2024-01-06T12:04:07;63.55;;;27.52;;
30862;SDS011;17573;55.922;37.540;2024-01-06T12:06:33;48.90;;;24.25;;
30862;SDS011;17573;55.922;37.540;2024-01-06T12:09:06;75.30;;;24.05;;
30862;SDS011;17573;55.922;37.540;2024-01-06T12:13:57;57.13;;;24.35;;
30862;SDS011;17573;55.922;37.540;2024-01-06T12:16:24;49.50;;;22.95;;
30862;SDS011;17573;55.922;37.540;2024-01-06T12:18:53;53.70;;;23.70;;
30862;SDS011;17573;55.922;37.540;2024-01-06T12:21:22;56.10;;;24.55;;
30862;SDS011;17573;55.922;37.540;2024-01-06T12:23:48;50.22;;;23.58;;
30862;SDS011;17573;55.922;37.540;2024-01-06T12:26:16;51.25;;;22.50;;
30862;SDS011;17573;55.922;37.540;2024-01-06T12:28:44;62.25;;;23.58;;
30862;SDS011;17573;55.922;37.540;2024-01-06T12:31:14;52.25;;;21.27;;
30862;SDS011;17573;55.922;37.540;2024-01-06T12:33:40;56.97;;;22.20;;
30862;SDS011;17573;55.922;37.540;2024-01-06T12:36:06;56.17;;;24.95;;
30862;SDS011;17573;55.922;37.540;2024-01-06T12:38:36;62.58;;;25.30;;
30862;SDS011;17573;55.922;37.540;2024-01-06T12:41:03;57.05;;;23.83;;
30862;SDS011;17573;55.922;37.540;2024-01-06T12:43:30;54.70;;;23.58;;
30862;SDS011;17573;55.922;37.540;2024-01-06T12:45:55;63.97;;;22.25;;
30862;SDS011;17573;55.922;37.540;2024-01-06T12:48:23;52.35;;;23.67;;
30862;SDS011;17573;55.922;37.540;2024-01-06T12:50:49;60.15;;;22.75;;
30862;SDS011;17573;55.922;37.540;2024-01-06T12:53:15;56.92;;;23.17;;
30862;SDS011;17573;55.922;37.540;2024-01-06T12:55:45;54.78;;;23.02;;
30862;SDS011;17573;55.922;37.540;2024-01-06T12:58:12;57.33;;;22.77;;
30862;SDS011;17573;55.922;37.540;2024-01-06T13:00:39;51.05;;;23.67;;
30862;SDS011;17573;55.922;37.540;2024-01-06T13:03:05;54.47;;;23.73;;
30862;SDS011;17573;55.922;37.540;2024-01-06T13:05:31;53.17;;;24.50;;
30862;SDS011;17573;55.922;37.540;2024-01-06T13:07:57;55.10;;;22.95;;
30862;SDS011;17573;55.922;37.540;2024-01-06T13:10:23;48.50;;;23.15;;
30862;SDS011;17573;55.922;37.540;2024-01-06T13:12:49;50.58;;;24.35;;
30862;SDS011;17573;55.922;37.540;2024-01-06T13:15:15;59.15;;;22.35;;
30862;SDS011;17573;55.922;37.540;2024-01-06T13:17:41;43.15;;;22.98;;
30862;SDS011;17573;55.922;37.540;2024-01-06T13:20:07;52.20;;;22.88;;
30862;SDS011;17573;55.922;37.540;2024-01-06T13:22:33;50.92;;;22.80;;
30862;SDS011;17573;55.922;37.540;2024-01-06T13:24:59;61.03;;;25.35;;
30862;SDS011;17573;55.922;37.540;2024-01-06T13:27:25;63.30;;;23.38;;
30862;SDS011;17573;55.922;37.540;2024-01-06T13:29:54;58.85;;;23.23;;
30862;SDS011;17573;55.922;37.540;2024-01-06T13:32:20;58.20;;;24.77;;
30862;SDS011;17573;55.922;37.540;2024-01-06T13:34:47;56.78;;;24.02;;
30862;SDS011;17573;55.922;37.540;2024-01-06T13:37:13;53.70;;;22.95;;
30862;SDS011;17573;55.922;37.540;2024-01-06T13:39:39;54.03;;;24.02;;
30862;SDS011;17573;55.922;37.540;2024-01-06T13:42:05;65.40;;;23.00;;
30862;SDS011;17573;55.922;37.540;2024-01-06T13:44:31;51.45;;;22.45;;
30862;SDS011;17573;55.922;37.540;2024-01-06T13:46:57;54.95;;;25.88;;
30862;SDS011;17573;55.922;37.540;2024-01-06T13:49:23;55.28;;;23.85;;
30862;SDS011;17573;55.922;37.540;2024-01-06T13:51:51;55.42;;;24.45;;
30862;SDS011;17573;55.922;37.540;2024-01-06T13:54:17;59.28;;;24.38;;
30862;SDS011;17573;55.922;37.540;2024-01-06T13:56:43;69.45;;;25.00;;
30862;SDS011;17573;55.922;37.540;2024-01-06T13:59:08;64.90;;;24.55;;
30862;SDS011;17573;55.922;37.540;2024-01-06T14:01:34;66.30;;;27.10;;
30862;SDS011;17573;55.922;37.540;2024-01-06T14:04:00;68.25;;;26.50;;
30862;SDS011;17573;55.922;37.540;2024-01-06T14:06:26;59.72;;;24.33;;
30862;SDS011;17573;55.922;37.540;2024-01-06T14:08:56;57.63;;;26.13;;
30862;SDS011;17573;55.922;37.540;2024-01-06T14:11:22;50.58;;;23.83;;
30862;SDS011;17573;55.922;37.540;2024-01-06T14:13:48;66.85;;;24.80;;